sensor_id;sensor_type;location;lat;lon;timestamp;pressure;altitude;pressure_sealevel;temperature;humidity
59315;BME280;46521;50.160;20.802;2023-07-09T00:12:12;99990.34;;;18.65;54.17
59315;BME280;46521;50.160;20.802;2023-07-09T00:22:16;100004.20;;;18.55;54.58
59315;BME280;46521;50.160;20.802;2023-07-09T00:32:19;100006.70;;;18.50;54.56
59315;BME280;46521;50.160;20.802;2023-07-09T00:42:25;100010.45;;;18.29;54.45
59315;BME280;46521;50.160;20.802;2023-07-09T00:52:33;100000.58;;;18.23;54.49
59315;BME280;46521;50.160;20.802;2023-07-09T01:02:38;99995.04;;;18.17;54.62
59315;BME280;46521;50.160;20.802;2023-07-09T01:12:46;99994.85;;;18.12;54.81
59315;BME280;46521;50.160;20.802;2023-07-09T01:22:51;99998.36;;;18.06;54.87
59315;BME280;46521;50.160;20.802;2023-07-09T01:32:58;99994.88;;;17.92;55.09
59315;BME280;46521;50.160;20.802;2023-07-09T01:43:01;99989.72;;;17.84;55.20
59315;BME280;46521;50.160;20.802;2023-07-09T01:53:03;100008.24;;;17.65;55.59
59315;BME280;46521;50.160;20.802;2023-07-09T02:03:04;100008.86;;;17.61;55.82
59315;BME280;46521;50.160;20.802;2023-07-09T02:13:05;100005.95;;;17.49;55.40
59315;BME280;46521;50.160;20.802;2023-07-09T02:23:08;100011.72;;;17.46;55.62
59315;BME280;46521;50.160;20.802;2023-07-09T02:33:09;100028.60;;;17.40;55.72
59315;BME280;46521;50.160;20.802;2023-07-09T02:43:11;100021.19;;;17.35;55.77
59315;BME280;46521;50.160;20.802;2023-07-09T02:53:12;100032.25;;;17.19;56.14
59315;BME280;46521;50.160;20.802;2023-07-09T03:03:13;100034.71;;;17.14;56.25
59315;BME280;46521;50.160;20.802;2023-07-09T03:13:15;100034.63;;;16.87;56.16
59315;BME280;46521;50.160;20.802;2023-07-09T03:23:16;100035.30;;;16.61;56.23
59315;BME280;46521;50.160;20.802;2023-07-09T03:33:18;100034.80;;;16.44;56.43
59315;BME280;46521;50.160;20.802;2023-07-09T03:43:20;100041.01;;;16.51;56.74
59315;BME280;46521;50.160;20.802;2023-07-09T03:53:21;100022.22;;;16.72;57.24
59315;BME280;46521;50.160;20.802;2023-07-09T04:13:23;100019.55;;;17.61;57.47
59315;BME280;46521;50.160;20.802;2023-07-09T04:23:25;100033.14;;;18.13;57.35
59315;BME280;46521;50.160;20.802;2023-07-09T04:33:26;100026.75;;;18.79;56.92
59315;BME280;46521;50.160;20.802;2023-07-09T04:43:28;100033.18;;;19.23;56.56
59315;BME280;46521;50.160;20.802;2023-07-09T04:53:30;100035.47;;;19.52;56.06
59315;BME280;46521;50.160;20.802;2023-07-09T05:03:31;100035.66;;;19.82;55.91
59315;BME280;46521;50.160;20.802;2023-07-09T05:13:33;100038.50;;;20.31;55.15
59315;BME280;46521;50.160;20.802;2023-07-09T05:23:34;100040.47;;;20.79;54.75
59315;BME280;46521;50.160;20.802;2023-07-09T05:33:36;100046.88;;;21.27;53.65
59315;BME280;46521;50.160;20.802;2023-07-09T05:43:37;100034.09;;;21.53;52.85
59315;BME280;46521;50.160;20.802;2023-07-09T05:53:39;100053.36;;;22.04;52.52
59315;BME280;46521;50.160;20.802;2023-07-09T06:13:41;100061.31;;;22.98;51.08
59315;BME280;46521;50.160;20.802;2023-07-09T06:23:42;100053.19;;;23.39;50.66
59315;BME280;46521;50.160;20.802;2023-07-09T06:33:44;100051.73;;;24.16;49.86
59315;BME280;46521;50.160;20.802;2023-07-09T06:53:46;100044.69;;;24.98;48.66
59315;BME280;46521;50.160;20.802;2023-07-09T07:03:51;100044.09;;;25.46;48.12
59315;BME280;46521;50.160;20.802;2023-07-09T07:13:52;100042.23;;;25.84;47.70
59315;BME280;46521;50.160;20.802;2023-07-09T07:23:57;100036.02;;;26.26;46.98
59315;BME280;46521;50.160;20.802;2023-07-09T07:33:59;100028.72;;;26.90;46.67
59315;BME280;46521;50.160;20.802;2023-07-09T07:44:00;100026.09;;;27.36;46.02
59315;BME280;46521;50.160;20.802;2023-07-09T07:54:02;100027.42;;;27.85;45.34
59315;BME280;46521;50.160;20.802;2023-07-09T08:04:05;100024.66;;;28.21;45.04
59315;BME280;46521;50.160;20.802;2023-07-09T08:14:06;100023.73;;;28.62;43.82
59315;BME280;46521;50.160;20.802;2023-07-09T08:24:08;100023.33;;;28.89;43.33
59315;BME280;46521;50.160;20.802;2023-07-09T08:34:09;100026.08;;;29.28;42.66
59315;BME280;46521;50.160;20.802;2023-07-09T09:04:23;100015.02;;;30.56;40.51
59315;BME280;46521;50.160;20.802;2023-07-09T09:14:38;99999.41;;;30.81;40.41
59315;BME280;46521;50.160;20.802;2023-07-09T09:35:17;99994.89;;;31.28;39.01
59315;BME280;46521;50.160;20.802;2023-07-09T09:45:24;99999.98;;;31.54;38.12
59315;BME280;46521;50.160;20.802;2023-07-09T10:05:32;99999.41;;;31.85;36.36
59315;BME280;46521;50.160;20.802;2023-07-09T10:26:15;99998.95;;;32.10;34.65
59315;BME280;46521;50.160;20.802;2023-07-09T10:47:13;99984.00;;;31.75;33.26
59315;BME280;46521;50.160;20.802;2023-07-09T10:57:48;99986.90;;;31.32;31.92
59315;BME280;46521;50.160;20.802;2023-07-09T11:08:16;99973.81;;;31.48;31.74
59315;BME280;46521;50.160;20.802;2023-07-09T11:18:25;99965.98;;;32.02;31.79
59315;BME280;46521;50.160;20.802;2023-07-09T11:28:35;99970.73;;;31.35;31.25
59315;BME280;46521;50.160;20.802;2023-07-09T11:38:46;99970.20;;;31.66;30.72
59315;BME280;46521;50.160;20.802;2023-07-09T11:48:49;99950.81;;;32.09;30.02
59315;BME280;46521;50.160;20.802;2023-07-09T11:58:52;99953.20;;;31.55;30.28
59315;BME280;46521;50.160;20.802;2023-07-09T12:08:54;99941.19;;;32.26;29.46
59315;BME280;46521;50.160;20.802;2023-07-09T12:18:57;99941.88;;;32.18;28.98
59315;BME280;46521;50.160;20.802;2023-07-09T12:28:59;99921.77;;;32.50;28.56
59315;BME280;46521;50.160;20.802;2023-07-09T12:39:03;99921.05;;;32.44;27.72
59315;BME280;46521;50.160;20.802;2023-07-09T13:09:22;99892.18;;;32.38;27.50
59315;BME280;46521;50.160;20.802;2023-07-09T13:19:23;99891.41;;;32.24;27.59
59315;BME280;46521;50.160;20.802;2023-07-09T13:29:26;99891.83;;;32.03;27.70
59315;BME280;46521;50.160;20.802;2023-07-09T13:39:28;99886.78;;;31.83;28.02
59315;BME280;46521;50.160;20.802;2023-07-09T13:49:29;99878.89;;;32.09;27.60
59315;BME280;46521;50.160;20.802;2023-07-09T14:09:31;99880.50;;;31.54;28.15
59315;BME280;46521;50.160;20.802;2023-07-09T14:19:33;99875.84;;;31.55;28.76
59315;BME280;46521;50.160;20.802;2023-07-09T14:29:35;99873.16;;;31.36;28.96
59315;BME280;46521;50.160;20.802;2023-07-09T14:39:37;99872.44;;;31.30;28.48
59315;BME280;46521;50.160;20.802;2023-07-09T14:49:38;99867.08;;;31.25;29.50
59315;BME280;46521;50.160;20.802;2023-07-09T14:59:39;99861.08;;;31.09;29.09
59315;BME280;46521;50.160;20.802;2023-07-09T15:09:41;99853.88;;;30.99;29.15
59315;BME280;46521;50.160;20.802;2023-07-09T15:19:44;99845.22;;;30.92;29.76
59315;BME280;46521;50.160;20.802;2023-07-09T15:29:46;99832.77;;;30.86;29.68
59315;BME280;46521;50.160;20.802;2023-07-09T15:39:47;99830.88;;;30.67;30.16
59315;BME280;46521;50.160;20.802;2023-07-09T15:49:49;99813.06;;;30.56;30.20
59315;BME280;46521;50.160;20.802;2023-07-09T15:59:50;99818.25;;;30.39;30.37
59315;BME280;46521;50.160;20.802;2023-07-09T16:09:52;99812.56;;;30.16;30.71
59315;BME280;46521;50.160;20.802;2023-07-09T16:19:53;99820.28;;;29.90;31.10
59315;BME280;46521;50.160;20.802;2023-07-09T16:29:55;99820.11;;;29.81;31.21
59315;BME280;46521;50.160;20.802;2023-07-09T16:39:56;99828.58;;;29.55;31.79
59315;BME280;46521;50.160;20.802;2023-07-09T16:49:57;99833.78;;;29.27;32.20
59315;BME280;46521;50.160;20.802;2023-07-09T17:10:27;99836.99;;;28.71;33.69
59315;BME280;46521;50.160;20.802;2023-07-09T17:20:30;99838.48;;;28.53;34.21
59315;BME280;46521;50.160;20.802;2023-07-09T17:30:32;99841.58;;;28.36;34.75
59315;BME280;46521;50.160;20.802;2023-07-09T17:40:35;99845.22;;;28.16;35.24
59315;BME280;46521;50.160;20.802;2023-07-09T17:50:37;99845.33;;;27.95;35.54
59315;BME280;46521;50.160;20.802;2023-07-09T18:00:39;99853.27;;;27.76;35.78
59315;BME280;46521;50.160;20.802;2023-07-09T18:10:41;99858.75;;;27.61;36.54
59315;BME280;46521;50.160;20.802;2023-07-09T18:20:44;99859.36;;;27.37;37.06
59315;BME280;46521;50.160;20.802;2023-07-09T18:30:45;99857.47;;;27.12;37.22
59315;BME280;46521;50.160;20.802;2023-07-09T18:40:47;99873.49;;;26.93;37.26
59315;BME280;46521;50.160;20.802;2023-07-09T18:50:50;99878.89;;;26.67;37.70
59315;BME280;46521;50.160;20.802;2023-07-09T19:10:54;99885.80;;;26.17;37.88
59315;BME280;46521;50.160;20.802;2023-07-09T19:20:56;99887.81;;;25.89;37.28
59315;BME280;46521;50.160;20.802;2023-07-09T19:30:58;99896.36;;;25.65;37.77
59315;BME280;46521;50.160;20.802;2023-07-09T19:40:59;99903.82;;;25.43;38.14
59315;BME280;46521;50.160;20.802;2023-07-09T19:51:01;99899.20;;;25.11;38.71
59315;BME280;46521;50.160;20.802;2023-07-09T20:01:02;99912.48;;;24.80;39.50
59315;BME280;46521;50.160;20.802;2023-07-09T20:11:08;99917.03;;;24.52;40.08
59315;BME280;46521;50.160;20.802;2023-07-09T20:21:19;99927.82;;;24.25;40.79
59315;BME280;46521;50.160;20.802;2023-07-09T20:31:23;99923.41;;;23.97;41.60
59315;BME280;46521;50.160;20.802;2023-07-09T20:41:25;99934.18;;;23.57;42.00
59315;BME280;46521;50.160;20.802;2023-07-09T20:51:30;99950.38;;;23.24;42.65
59315;BME280;46521;50.160;20.802;2023-07-09T21:01:31;99960.79;;;23.03;43.48
59315;BME280;46521;50.160;20.802;2023-07-09T21:11:33;99971.78;;;22.84;43.95
59315;BME280;46521;50.160;20.802;2023-07-09T21:21:34;99979.34;;;22.06;45.31
59315;BME280;46521;50.160;20.802;2023-07-09T21:31:36;99979.93;;;21.49;46.20
59315;BME280;46521;50.160;20.802;2023-07-09T21:41:37;99982.86;;;21.17;46.99
59315;BME280;46521;50.160;20.802;2023-07-09T21:51:39;99980.33;;;20.92;47.66
59315;BME280;46521;50.160;20.802;2023-07-09T22:01:41;99991.14;;;20.74;48.23
59315;BME280;46521;50.160;20.802;2023-07-09T22:11:44;100002.11;;;20.53;48.54
59315;BME280;46521;50.160;20.802;2023-07-09T22:21:51;100002.47;;;20.39;49.14
59315;BME280;46521;50.160;20.802;2023-07-09T22:31:52;100007.11;;;20.31;49.54
59315;BME280;46521;50.160;20.802;2023-07-09T22:41:54;100004.56;;;20.37;49.88
59315;BME280;46521;50.160;20.802;2023-07-09T23:01:58;100011.95;;;20.41;50.01
59315;BME280;46521;50.160;20.802;2023-07-09T23:11:59;100014.42;;;20.43;50.23
59315;BME280;46521;50.160;20.802;2023-07-09T23:22:02;100016.52;;;20.41;50.37
59315;BME280;46521;50.160;20.802;2023-07-09T23:32:04;100002.33;;;20.33;50.34
59315;BME280;46521;50.160;20.802;2023-07-09T23:42:08;100012.69;;;20.11;50.94
